• Join FlightAware (Why Join?)
  • Login
  • US Flag 
10:11AM EST


 

Airport Tracker/Info


-or-


 

Live Flight TrackerFlight Track Log ✈ AAY859 ✈ 21 Aug 2014 ✈ KCVG - KPIE

Flight Track Log - Related Links

Times and Time Zones

All times are in EDT time to prevent confusion due to time zone crossing. See the AAY859 flight status page for this flight to view local times or setup timezone preferences in your user account.

Time Position Orientation Groundspeed Altitude Reporting Facility
EDT Latitude Longitude Course Direction KTS MPH feet Rate Location/Type
03:46PM 39.0167 -84.6500 159° South 173 199 1,600  Level Cincinnati TRACON
03:46PM 38.9833 -84.6333 159° South 181 208 2,900 1,620 Climbing Cincinnati TRACON
03:47PM 38.9167 -84.6167 169° South 307 353 4,600 2,100 Climbing Cincinnati TRACON
03:49PM 38.8303 -84.5875 165° South 276 318 7,700 2,460 Climbing Indianapolis Center
03:50PM 38.7472 -84.5694 170° South 295 339 10,300 1,860 Climbing Indianapolis Center
03:51PM 38.6431 -84.5494 171° South 345 397 11,600 1,860 Climbing Indianapolis Center
03:52PM 38.5114 -84.5236 171° South 396 456 14,200 2,280 Climbing Indianapolis Center
03:53PM 38.3969 -84.5022 172° South 411 473 16,400 1,980 Climbing Indianapolis Center
03:54PM 38.2778 -84.4981 178° South 423 487 18,300 1,740 Climbing Indianapolis Center
03:55PM 38.1561 -84.4911 177° South 431 496 20,100 1,680 Climbing Indianapolis Center
03:56PM 38.0325 -84.4781 175° South 441 507 21,800 1,440 Climbing Indianapolis Center
03:57PM 37.8856 -84.4600 174° South 450 518 23,200 1,380 Climbing Indianapolis Center
03:58PM 37.7531 -84.4481 176° South 469 540 24,700 1,440 Climbing Indianapolis Center
03:59PM 37.6233 -84.4319 174° South 469 540 26,200 1,380 Climbing Indianapolis Center
04:00PM 37.4936 -84.4044 170° South 469 540 27,600 1,320 Climbing Indianapolis Center
04:01PM 37.3653 -84.3653 166° South 471 542 29,000 1,500 Climbing Indianapolis Center
04:02PM 37.2206 -84.3144 164° South 469 540 30,800 1,200 Climbing Indianapolis Center
04:03PM 37.0950 -84.2725 165° South 469 540 31,600 720 Climbing Indianapolis Center
04:04PM 36.9697 -84.2350 167° South 465 535 32,400 660 Climbing Indianapolis Center
04:05PM 36.8442 -84.1967 166° South 465 535 33,000 240 Climbing Indianapolis Center
04:06PM 36.7219 -84.1558 165° South 461 531 33,000  Level Indianapolis Center
04:07PM 36.5783 -84.1078 165° South 458 527 33,000  Level Indianapolis Center
04:08PM 36.4519 -84.0672 166° South 462 532 33,000  Level Indianapolis Center
04:09PM 36.3281 -84.0286 166° South 462 532 33,000  Level Indianapolis Center
04:10PM 36.2058 -83.9897 166° South 456 525 33,000  Level Indianapolis Center
04:11PM 36.0831 -83.9506 166° South 455 524 33,000  Level Indianapolis Center
04:12PM 35.9561 -83.9106 166° South 450 518 33,000  Level Atlanta Center
04:13PM 35.8328 -83.8747 167° South 450 518 33,000  Level Atlanta Center
04:14PM 35.7119 -83.8367 166° South 450 518 33,000  Level Atlanta Center
04:15PM 35.5928 -83.8039 167° South 450 518 33,000  Level Atlanta Center
04:16PM 35.4717 -83.7683 167° South 450 518 33,000  Level Atlanta Center
04:17PM 35.3506 -83.7306 166° South 450 518 33,000  Level Atlanta Center
04:18PM 35.2336 -83.6956 166° South 450 518 33,000  Level Atlanta Center
04:19PM 35.1125 -83.6606 167° South 450 518 33,000  Level Atlanta Center
04:20PM 34.9914 -83.6281 168° South 450 518 33,000  Level Atlanta Center
04:21PM 34.8850 -83.5931 165° South 450 518 33,000  Level Atlanta Center
04:22PM 34.7533 -83.5558 167° South 445 512 33,000  Level Atlanta Center
04:23PM 34.6300 -83.5211 167° South 445 512 33,000  Level Atlanta Center
04:24PM 34.5108 -83.4867 167° South 450 518 33,000  Level Atlanta Center
04:25PM 34.3878 -83.4497 166° South 450 518 33,000  Level Atlanta Center
04:26PM 34.2767 -83.3928 157° South 450 518 33,000  Level Atlanta Center
04:27PM 34.1658 -83.3233 153° Southeast 445 512 33,000  Level Atlanta Center
04:28PM 34.0569 -83.2539 152° Southeast 445 512 33,000  Level Atlanta Center
04:29PM 33.9436 -83.1850 153° Southeast 445 512 33,000  Level Atlanta Center
04:31PM 33.7050 -83.0975 180° South 450 518 33,000  Level Atlanta Center
04:32PM 33.5797 -83.0689 169° South 444 511 33,000  Level Atlanta Center
04:33PM 33.4625 -83.0353 167° South 449 517 33,000 60 Level Atlanta Center
04:34PM 33.3411 -82.9994 166° South 449 517 33,200 480 Climbing Atlanta Center
04:35PM 33.2197 -82.9686 168° South 449 517 34,000 360 Climbing Atlanta Center
04:36PM 33.1006 -82.9353 167° South 449 517 34,000  Level Atlanta Center
04:37PM 32.9833 -82.9047 168° South 444 511 34,000  Level Atlanta Center
04:39PM 32.7844 -82.8481 167° South 454 522 34,000  Level Jacksonville Center
04:40PM 32.6781 -82.8186 167° South 449 517 34,000  Level Jacksonville Center
04:41PM 32.5611 -82.7892 168° South 449 517 34,000  Level Jacksonville Center
04:42PM 32.4419 -82.7547 166° South 443 510 34,000  Level Jacksonville Center
04:43PM 32.3147 -82.7181 166° South 432 497 34,000  Level Jacksonville Center
04:44PM 32.1978 -82.6864 167° South 432 497 34,000  Level Jacksonville Center
04:45PM 32.0808 -82.6547 167° South 432 497 34,000  Level Jacksonville Center
04:46PM 31.9658 -82.6233 167° South 432 497 34,000  Level Jacksonville Center
04:47PM 31.8489 -82.5917 167° South 432 497 34,000  Level Jacksonville Center
04:48PM 31.7319 -82.5603 167° South 432 497 34,000  Level Jacksonville Center
04:49PM 31.6147 -82.5292 167° South 432 497 34,000  Level Jacksonville Center
04:50PM 31.4978 -82.5050 170° South 432 497 34,000  Level Jacksonville Center
04:51PM 31.3789 -82.5081 181° South 427 491 34,000  Level Jacksonville Center
04:52PM 31.2597 -82.5256 187° South 421 484 34,000  Level Jacksonville Center
04:53PM 31.1408 -82.5308 182° South 421 484 34,000  Level Jacksonville Center
04:54PM 31.0219 -82.5339 181° South 421 484 34,000  Level Jacksonville Center
04:55PM 30.9028 -82.5392 182° South 421 484 34,000  Level Jacksonville Center
04:56PM 30.7817 -82.5419 181° South 426 490 34,000  Level Jacksonville Center
04:57PM 30.6628 -82.5497 183° South 426 490 34,000  Level Jacksonville Center
04:58PM 30.5439 -82.5550 182° South 426 490 34,000  Level Jacksonville Center
04:59PM 30.4289 -82.5842 192° South 426 490 34,000 -60 Level Jacksonville Center
05:00PM 30.3122 -82.6158 193° South 426 490 33,900 -780 Descending Jacksonville Center
05:02PM 30.0844 -82.5756 171° South 415 478 31,700 -1,200 Descending Jacksonville Center
05:03PM 29.9800 -82.5208 156° South 404 465 30,400 -1,140 Descending Jacksonville Center
05:04PM 29.8964 -82.4853 160° South 410 472 29,500 -1,080 Descending Jacksonville Center
05:05PM 29.7814 -82.4356 159° South 410 472 28,300 -1,200 Descending Jacksonville Center
05:06PM 29.6767 -82.3953 162° South 410 472 27,100 -1,260 Descending Jacksonville Center
05:07PM 29.5744 -82.3553 161° South 405 466 25,800 -1,200 Descending Jacksonville Center
05:08PM 29.4678 -82.3417 174° South 395 455 24,700 -1,200 Descending Jacksonville Center
05:09PM 29.3592 -82.3303 175° South 390 449 23,400 -1,260 Descending Jacksonville Center
05:10PM 29.2589 -82.3214 176° South 380 437 22,200 -1,200 Descending Jacksonville Center
05:11PM 29.1628 -82.3075 173° South 369 425 21,000 -1,200 Descending Jacksonville Center
05:12PM 29.0628 -82.2964 174° South 364 419 19,800 -1,800 Descending Jacksonville Center
05:13PM 28.9583 -82.2828 173° South 369 425 17,400 -2,100 Descending Jacksonville Center
05:15PM 28.7000 -82.2667 177° South 368 423 13,000 -1,620 Descending Tampa TRACON
05:16PM 28.6000 -82.2500 172° South 347 399 12,100 -840 Descending Tampa TRACON
05:17PM 28.5167 -82.2833 199° South 346 398 11,400 -780 Descending Tampa TRACON
05:18PM 28.4833 -82.3833 249° West 342 394 10,600 -720 Descending Tampa TRACON
05:19PM 28.4500 -82.4667 246° West 326 375 10,000 -300 Descending Tampa TRACON
05:20PM 28.4000 -82.5500 236° Southwest 325 374 10,000  Level Tampa TRACON
05:21PM 28.3333 -82.6333 228° Southwest 322 371 10,000  Level Tampa TRACON
05:22PM 28.2500 -82.6833 208° Southwest 325 374 10,000 -720 Level Tampa TRACON
05:23PM 28.1833 -82.7333 213° Southwest 310 357 8,600 -1,920 Descending Tampa TRACON
05:24PM 28.1000 -82.7500 190° South 278 320 6,200 -2,400 Descending Tampa TRACON
05:25PM 28.0333 -82.7500 180° South 263 303 3,900 -1,800 Descending Tampa TRACON
05:26PM 27.9667 -82.7500 180° South 230 265 2,700 -720 Descending Tampa TRACON
05:27PM 27.9000 -82.7500 180° South 202 232 2,500 -600 Descending Tampa TRACON
05:28PM 27.8500 -82.7333 164° South 213 245 1,600 -600 Descending Tampa TRACON
05:29PM 27.8333 -82.6833 111° Southeast 181 208 1,400 -480 Descending Tampa TRACON
05:30PM 27.8667 -82.6833 360° North 136 157 700 -720 Descending Tampa TRACON
05:33PM 27.9100 -82.6875 310° West  Level Estimated